Time;durP1;ratioP1;P1;durP2;ratioP2;P2;SDS_P1;SDS_P2;PMS_P1;PMS_P2;Temp;Humidity;BMP_temperature;BMP_pressure;BME280_temperature;BME280_humidity;BME280_pressure;Samples;Min_cycle;Max_cycle;Signal;HPM_P1;HPM_P2
2022/07/03 00:01:22;;;;;;;3.65;3.08;;;18.20;93.50;;;;;;4986366;28;20022;-75
2022/07/03 00:03:48;;;;;;;4.67;3.33;;;18.20;94.00;;;;;;4986935;28;20046;-75
2022/07/03 00:06:13;;;;;;;4.43;3.50;;;18.20;94.70;;;;;;5001683;28;20089;-75
2022/07/03 00:08:39;;;;;;;4.00;3.60;;;18.10;94.40;;;;;;4986241;28;20304;-75
2022/07/03 00:11:05;;;;;;;5.10;3.70;;;18.10;93.80;;;;;;5014233;28;20022;-75
2022/07/03 00:13:31;;;;;;;4.95;3.70;;;18.10;94.20;;;;;;5005274;28;20029;-75
2022/07/03 00:15:57;;;;;;;5.30;3.27;;;18.10;93.50;;;;;;5004817;28;20030;-75
2022/07/03 00:18:23;;;;;;;6.97;3.80;;;18.00;94.80;;;;;;5006559;28;20026;-75
2022/07/03 00:20:49;;;;;;;5.27;4.00;;;18.00;95.90;;;;;;4997370;28;20066;-75
2022/07/03 00:23:18;;;;;;;;;;;17.90;95.70;;;;;;4985760;28;20023;-75
2022/07/03 00:25:44;;;;;;;4.60;3.55;;;17.90;94.80;;;;;;4993313;28;19945;-75
2022/07/03 00:28:10;;;;;;;7.93;4.10;;;17.90;95.10;;;;;;4989182;28;20265;-75
2022/07/03 00:30:36;;;;;;;6.53;3.60;;;17.90;94.40;;;;;;5004934;28;20060;-75
2022/07/03 00:33:03;;;;;;;5.03;4.13;;;17.80;95.90;;;;;;5027640;23;20030;31
2022/07/03 00:35:32;;;;;;;4.43;3.75;;;17.80;95.30;;;;;;4961392;28;20059;-71
2022/07/03 00:37:58;;;;;;;5.28;3.63;;;17.80;96.10;;;;;;4961508;29;20027;-71
2022/07/03 00:40:24;;;;;;;3.97;3.22;;;17.70;95.60;;;;;;4965921;29;20015;-71
2022/07/03 00:42:53;;;;;;;3.87;3.47;;;17.70;95.70;;;;;;4966033;29;20492;-71
2022/07/03 00:45:22;;;;;;;4.13;3.60;;;17.70;95.70;;;;;;4966174;29;20364;-71
2022/07/03 00:47:48;;;;;;;6.85;3.90;;;17.60;95.60;;;;;;4965191;29;20034;-71
2022/07/03 00:50:14;;;;;;;4.10;3.23;;;17.60;95.80;;;;;;4965953;29;20026;-71
2022/07/03 00:52:46;;;;;;;4.00;3.50;;;17.50;96.30;;;;;;4966067;29;20038;-71
2022/07/03 00:55:15;;;;;;;3.55;3.22;;;17.50;95.60;;;;;;4965660;28;20019;-70
2022/07/03 00:57:47;;;;;;;4.18;3.42;;;17.50;96.70;;;;;;4965934;29;20070;-70
2022/07/03 01:00:15;;;;;;;4.38;3.05;;;17.50;96.60;;;;;;4965283;28;20051;-70
2022/07/03 01:03:09;;;;;;;5.57;3.83;;;17.40;96.60;;;;;;4965889;28;20027;-71
2022/07/03 01:05:40;;;;;;;3.35;2.85;;;17.40;96.20;;;;;;4965876;29;20039;-71
2022/07/03 01:08:09;;;;;;;4.78;3.13;;;17.40;96.00;;;;;;4966006;29;20030;-71
2022/07/03 01:11:01;;;;;;;4.82;3.50;;;17.40;96.30;;;;;;4966042;28;20322;-71
2022/07/03 01:14:17;;;;;;;3.47;3.17;;;17.30;96.20;;;;;;4949081;29;20032;-70
2022/07/03 01:17:02;;;;;;;4.97;3.55;;;17.30;96.40;;;;;;4954222;29;20760;-71
2022/07/03 01:19:30;;;;;;;3.35;2.95;;;17.30;96.50;;;;;;4968579;29;20026;-71
2022/07/03 01:22:22;;;;;;;4.90;3.10;;;17.30;97.00;;;;;;4969462;28;20019;-71
2022/07/03 01:25:15;;;;;;;4.07;3.55;;;17.30;97.00;;;;;;4964819;29;20031;-71
2022/07/03 01:28:11;;;;;;;4.43;3.78;;;17.20;97.30;;;;;;4966784;28;20082;-71
2022/07/03 01:30:47;;;;;;;5.65;3.35;;;17.20;97.00;;;;;;4964588;29;20027;-71
2022/07/03 01:33:23;;;;;;;4.00;3.08;;;17.20;96.90;;;;;;4965210;28;20063;-71
2022/07/03 01:36:01;;;;;;;7.25;3.35;;;17.20;96.30;;;;;;4964237;29;20045;-70
2022/07/03 01:38:32;;;;;;;3.45;3.00;;;17.10;96.20;;;;;;4966449;28;20020;-73
2022/07/03 01:40:58;;;;;;;4.80;3.70;;;17.10;96.20;;;;;;4964440;29;20027;-71
2022/07/03 01:43:36;;;;;;;3.72;3.17;;;17.00;96.80;;;;;;4945546;29;20023;-71
2022/07/03 01:46:03;;;;;;;3.78;3.30;;;17.00;96.80;;;;;;4946079;29;20250;-71
2022/07/03 01:48:30;;;;;;;5.90;3.72;;;17.00;97.20;;;;;;4964669;29;20034;-70
2022/07/03 01:50:56;;;;;;;3.55;3.22;;;17.00;97.50;;;;;;4966272;28;20207;-71
2022/07/03 01:53:25;;;;;;;4.68;3.88;;;17.00;97.70;;;;;;4948541;28;20033;-71
2022/07/03 01:55:51;;;;;;;3.92;3.53;;;16.90;96.60;;;;;;4945243;29;20051;-70
2022/07/03 01:58:17;;;;;;;6.67;3.60;;;16.90;96.50;;;;;;4960665;29;20049;-70
2022/07/03 02:01:15;;;;;;;5.13;3.63;;;16.90;96.40;;;;;;4965018;29;20326;-70
2022/07/03 02:04:04;;;;;;;3.88;3.28;;;16.80;97.50;;;;;;4963389;29;20023;-70
2022/07/03 02:06:41;;;;;;;5.93;3.75;;;16.80;97.30;;;;;;4963901;29;20078;-70
2022/07/03 02:09:08;;;;;;;4.03;3.60;;;16.80;97.40;;;;;;4945985;29;20132;-70
2022/07/03 02:11:44;;;;;;;4.60;3.17;;;16.80;97.70;;;;;;4945404;29;20079;-70
2022/07/03 02:14:39;;;;;;;4.40;3.53;;;16.80;97.50;;;;;;4964452;29;20043;-70
2022/07/03 02:17:17;;;;;;;6.35;3.90;;;16.80;97.80;;;;;;4961950;28;20046;-70
2022/07/03 02:19:59;;;;;;;5.25;3.78;;;16.80;98.30;;;;;;4946495;29;20016;-70
2022/07/03 02:22:47;;;;;;;3.97;3.50;;;16.80;98.10;;;;;;4948099;29;20023;-70
2022/07/03 02:25:18;;;;;;;;;;;16.80;98.10;;;;;;4965563;28;20569;-71
2022/07/03 02:28:02;;;;;;;5.55;3.60;;;16.70;98.30;;;;;;4962522;28;20300;-70
2022/07/03 02:30:28;;;;;;;5.57;3.30;;;16.70;98.10;;;;;;4945449;29;20099;-70
2022/07/03 02:32:54;;;;;;;4.63;3.53;;;16.70;98.10;;;;;;4948162;29;20283;-70
2022/07/03 02:35:27;;;;;;;5.03;3.22;;;16.70;98.30;;;;;;4964663;29;20494;-70
2022/07/03 02:38:10;;;;;;;5.22;3.95;;;16.70;98.20;;;;;;4964956;29;20023;-70
2022/07/03 02:41:06;;;;;;;3.45;2.95;;;16.60;98.40;;;;;;4965791;28;20019;-70
2022/07/03 02:43:49;;;;;;;3.58;3.10;;;16.60;98.50;;;;;;4963943;29;20027;-71
2022/07/03 02:46:49;;;;;;;4.53;3.50;;;16.60;98.40;;;;;;4964355;29;20094;-70
2022/07/03 02:49:52;;;;;;;4.57;3.42;;;16.60;98.30;;;;;;4964160;29;20266;-70
2022/07/03 02:52:30;;;;;;;7.97;4.05;;;16.60;98.40;;;;;;4965255;28;20381;-70
2022/07/03 02:54:59;;;;;;;;;;;16.60;98.20;;;;;;4964087;29;20031;-70
2022/07/03 02:57:25;;;;;;;4.10;3.10;;;16.60;98.20;;;;;;4948147;29;19910;-70
2022/07/03 03:00:01;;;;;;;5.10;3.60;;;16.50;98.20;;;;;;4963996;28;20153;-72
2022/07/03 03:02:53;;;;;;;3.30;3.00;;;16.50;98.30;;;;;;4963910;29;20062;-73
2022/07/03 03:05:45;;;;;;;5.20;3.30;;;16.50;98.30;;;;;;4964857;28;20038;-70
2022/07/03 03:08:47;;;;;;;3.50;3.20;;;16.40;98.20;;;;;;4947459;28;20030;-71
2022/07/03 03:11:27;;;;;;;6.53;3.10;;;16.40;97.80;;;;;;4928683;29;20027;-70
2022/07/03 03:13:56;;;;;;;5.28;3.88;;;16.40;98.50;;;;;;4944018;29;20326;-70
2022/07/03 03:16:22;;;;;;;3.40;3.05;;;16.40;98.30;;;;;;4945425;29;20039;-70
2022/07/03 03:18:48;;;;;;;4.60;3.10;;;16.40;98.40;;;;;;4943702;29;20058;-70
2022/07/03 03:21:17;;;;;;;3.90;3.13;;;16.40;98.60;;;;;;4945809;29;20023;-70
2022/07/03 03:23:50;;;;;;;5.85;3.33;;;16.40;98.10;;;;;;4962944;29;20211;-70
2022/07/03 03:26:20;;;;;;;3.85;3.17;;;16.40;98.40;;;;;;4963610;29;20199;-71
2022/07/03 03:28:45;;;;;;;4.05;3.30;;;16.30;98.90;;;;;;4963411;29;20094;-71
2022/07/03 03:31:12;;;;;;;5.10;3.20;;;16.30;98.70;;;;;;4951109;28;20032;-71
2022/07/03 03:33:46;;;;;;;5.45;3.58;;;16.30;98.80;;;;;;4943726;29;20023;-73
2022/07/03 03:36:16;;;;;;;3.95;3.42;;;16.30;98.90;;;;;;4943960;29;20032;-71
2022/07/03 03:38:42;;;;;;;4.03;3.28;;;16.30;98.90;;;;;;4952197;29;20087;-70
2022/07/03 03:41:08;;;;;;;6.77;3.87;;;16.20;98.80;;;;;;4945262;29;20027;-70
2022/07/03 03:43:34;;;;;;;3.90;3.50;;;16.30;99.00;;;;;;4952309;29;20019;-70
2022/07/03 03:46:00;;;;;;;6.03;3.70;;;16.20;98.80;;;;;;4963345;29;20031;-70
2022/07/03 03:48:30;;;;;;;3.97;3.53;;;16.20;98.70;;;;;;4963263;29;20042;-70
2022/07/03 03:50:56;;;;;;;6.20;3.65;;;16.20;99.90;;;;;;4963023;29;20034;-70
2022/07/03 03:53:22;;;;;;;5.93;3.63;;;16.20;99.30;;;;;;4963742;28;20060;-70
2022/07/03 03:56:08;;;;;;;4.33;3.33;;;16.20;99.30;;;;;;4963159;29;20031;-73
2022/07/03 03:58:36;;;;;;;4.03;3.60;;;16.20;99.50;;;;;;4964015;28;20023;-70
2022/07/03 04:01:03;;;;;;;4.53;3.53;;;16.20;99.50;;;;;;4963129;29;20126;-71
2022/07/03 04:03:29;;;;;;;4.30;3.70;;;16.20;99.50;;;;;;4962811;29;20027;-71
2022/07/03 04:05:55;;;;;;;4.97;4.20;;;16.20;99.30;;;;;;4963179;29;20023;-70
2022/07/03 04:08:22;;;;;;;5.17;3.57;;;16.20;99.30;;;;;;4946396;28;20038;-71
2022/07/03 04:10:48;;;;;;;4.38;3.85;;;16.10;99.00;;;;;;4943895;29;20063;-70
2022/07/03 04:13:14;;;;;;;3.35;3.05;;;16.10;98.60;;;;;;4943593;29;20233;-70
2022/07/03 04:15:40;;;;;;;3.67;3.22;;;16.00;98.80;;;;;;4944857;29;20027;-70
2022/07/03 04:18:06;;;;;;;4.17;3.07;;;16.00;98.60;;;;;;4951111;29;20318;-70
2022/07/03 04:20:32;;;;;;;5.23;3.60;;;16.00;99.10;;;;;;4964208;28;20344;-71
2022/07/03 04:22:58;;;;;;;4.40;3.50;;;16.00;98.90;;;;;;4963524;28;20341;-71
2022/07/03 04:25:24;;;;;;;4.03;3.63;;;15.90;98.60;;;;;;4962871;29;20033;-70
2022/07/03 04:27:49;;;;;;;3.97;3.57;;;15.90;98.90;;;;;;4963979;28;20051;-70
2022/07/03 04:30:15;;;;;;;4.67;3.47;;;15.90;98.80;;;;;;4963899;28;20031;-70
2022/07/03 04:32:41;;;;;;;4.43;3.07;;;15.90;98.90;;;;;;4947848;29;20028;-71
2022/07/03 04:35:07;;;;;;;5.47;3.33;;;15.90;98.80;;;;;;4946983;29;20267;-71
2022/07/03 04:37:33;;;;;;;4.13;3.38;;;15.90;99.90;;;;;;4957854;29;20023;-70
2022/07/03 04:39:59;;;;;;;5.30;3.30;;;16.00;99.90;;;;;;4967468;28;20053;-70
2022/07/03 04:42:24;;;;;;;10.07;3.60;;;16.10;99.80;;;;;;4964314;28;20214;-73
2022/07/03 04:44:50;;;;;;;5.33;3.70;;;16.10;99.50;;;;;;4947838;29;20028;-70
2022/07/03 04:47:16;;;;;;;6.70;4.17;;;16.10;99.20;;;;;;4948134;29;20094;-70
2022/07/03 04:49:42;;;;;;;4.03;3.63;;;16.10;99.40;;;;;;4965233;29;20027;-72
2022/07/03 04:52:08;;;;;;;4.20;3.17;;;16.20;99.30;;;;;;4967167;28;20356;-73
2022/07/03 04:54:34;;;;;;;4.10;3.53;;;16.10;99.20;;;;;;4950445;28;20054;-70
2022/07/03 04:57:00;;;;;;;4.60;3.07;;;16.20;99.10;;;;;;4947864;29;20271;-70
2022/07/03 04:59:26;;;;;;;3.90;3.50;;;16.20;99.00;;;;;;4961015;29;20023;-71
2022/07/03 05:01:51;;;;;;;3.53;3.23;;;16.20;99.10;;;;;;4966085;29;20034;-70
2022/07/03 05:04:17;;;;;;;3.37;3.07;;;16.30;99.10;;;;;;4954209;28;20063;-70
2022/07/03 05:06:43;;;;;;;3.60;3.23;;;16.30;99.40;;;;;;4946623;29;20067;-72
2022/07/03 05:09:09;;;;;;;4.73;3.37;;;16.40;99.90;;;;;;4952953;29;20031;-71
2022/07/03 05:11:35;;;;;;;3.60;3.07;;;16.50;99.30;;;;;;4947373;29;20032;-73
2022/07/03 05:14:04;;;;;;;5.75;3.40;;;16.50;99.00;;;;;;4946227;29;20327;-72
2022/07/03 05:16:30;;;;;;;4.18;3.25;;;16.50;99.00;;;;;;4947525;29;20036;-73
2022/07/03 05:18:56;;;;;;;3.53;2.40;;;16.70;99.20;;;;;;4947540;29;20361;-73
2022/07/03 05:21:22;;;;;;;4.40;3.30;;;16.70;98.90;;;;;;4946394;29;20035;-72
2022/07/03 05:23:47;;;;;;;4.43;3.70;;;16.80;98.40;;;;;;4954854;29;20035;-73
2022/07/03 05:26:13;;;;;;;4.10;3.23;;;16.80;98.00;;;;;;4965597;29;20058;-72
2022/07/03 05:28:39;;;;;;;3.80;3.40;;;16.90;98.10;;;;;;4966611;28;20086;-72
2022/07/03 05:31:05;;;;;;;3.83;3.00;;;16.90;97.80;;;;;;4964741;28;20042;-72
2022/07/03 05:33:31;;;;;;;4.07;3.40;;;17.00;97.80;;;;;;4946655;29;20043;-73
2022/07/03 05:35:57;;;;;;;5.10;3.40;;;17.00;97.70;;;;;;4947218;29;20036;-72
2022/07/03 05:41:07;;;;;;;5.97;3.28;;;17.10;97.80;;;;;;4947228;29;20035;-72
2022/07/03 05:43:33;;;;;;;3.40;3.10;;;17.20;98.00;;;;;;4960062;29;20023;-73
2022/07/03 05:45:59;;;;;;;4.27;3.57;;;17.30;98.30;;;;;;4965447;29;20094;-72
2022/07/03 05:48:25;;;;;;;4.97;3.30;;;17.40;98.00;;;;;;4955789;28;20023;-72
2022/07/03 05:50:50;;;;;;;3.93;3.53;;;17.40;97.90;;;;;;4946843;29;20078;-72
2022/07/03 05:53:16;;;;;;;6.53;3.87;;;17.50;97.70;;;;;;4949514;29;20337;-72
2022/07/03 05:55:42;;;;;;;6.90;4.50;;;17.60;97.50;;;;;;4966191;28;20032;-72
2022/07/03 05:58:08;;;;;;;5.37;3.43;;;17.70;97.20;;;;;;4964912;28;20022;-72
2022/07/03 06:00:33;;;;;;;4.93;3.73;;;17.70;97.20;;;;;;4945450;29;20090;-72
2022/07/03 06:02:59;;;;;;;3.97;3.43;;;17.80;97.70;;;;;;4946513;29;20031;-72
2022/07/03 06:05:26;;;;;;;4.07;3.60;;;17.80;97.20;;;;;;4946566;29;20028;-73
2022/07/03 06:07:52;;;;;;;5.72;4.00;;;17.90;97.20;;;;;;4945161;29;20027;-72
2022/07/03 06:10:17;;;;;;;4.40;3.93;;;17.90;97.40;;;;;;4960693;29;20046;-72
2022/07/03 06:12:43;;;;;;;4.00;3.60;;;18.00;97.40;;;;;;4965557;28;20035;-73
2022/07/03 06:15:09;;;;;;;5.30;3.70;;;18.10;97.20;;;;;;4965549;28;20034;-73
2022/07/03 06:17:36;;;;;;;3.83;3.17;;;18.10;97.00;;;;;;4965768;28;20090;-72
2022/07/03 06:20:05;;;;;;;6.03;3.55;;;18.20;97.40;;;;;;4963362;29;20096;-73
2022/07/03 06:22:31;;;;;;;3.92;3.35;;;18.30;97.00;;;;;;4964958;28;20338;-73
2022/07/03 06:24:57;;;;;;;4.87;3.70;;;18.30;96.90;;;;;;4964305;29;20026;-72
2022/07/03 06:27:23;;;;;;;5.63;3.77;;;18.40;96.90;;;;;;4965696;28;20054;-72
2022/07/03 06:29:52;;;;;;;5.33;3.87;;;18.50;96.70;;;;;;4965460;28;20208;-72
2022/07/03 06:32:18;;;;;;;5.90;3.35;;;18.60;96.60;;;;;;4964370;29;20111;-73
2022/07/03 06:34:43;;;;;;;5.95;2.97;;;18.70;95.90;;;;;;4963611;29;20342;-72
2022/07/03 06:37:10;;;;;;;3.30;2.90;;;18.80;95.70;;;;;;4965232;28;20038;-72
2022/07/03 06:39:36;;;;;;;3.97;2.97;;;18.90;95.40;;;;;;4964271;28;20027;-70
2022/07/03 06:42:02;;;;;;;6.47;3.03;;;18.90;94.80;;;;;;4965163;28;20200;-73
2022/07/03 06:44:28;;;;;;;3.63;2.70;;;19.00;94.60;;;;;;4963963;29;20074;-73
2022/07/03 06:46:53;;;;;;;3.60;2.80;;;19.00;95.00;;;;;;4965168;28;20034;-73
2022/07/03 06:49:19;;;;;;;4.20;2.87;;;19.10;94.80;;;;;;4965181;28;20159;-72
2022/07/03 06:51:45;;;;;;;3.77;2.77;;;19.20;94.40;;;;;;4964883;28;20019;-71
2022/07/03 06:54:11;;;;;;;3.93;2.90;;;19.20;94.40;;;;;;4964365;28;20242;-72
2022/07/03 06:56:36;;;;;;;2.87;2.63;;;19.30;93.80;;;;;;4965033;28;20098;-73
2022/07/03 06:59:02;;;;;;;4.43;3.00;;;19.30;93.70;;;;;;4964961;28;20026;-72
2022/07/03 07:01:28;;;;;;;6.83;2.80;;;19.40;93.80;;;;;;4959312;28;20023;-72
2022/07/03 07:03:54;;;;;;;4.97;3.20;;;19.40;93.70;;;;;;4944052;29;20019;-73
2022/07/03 07:06:19;;;;;;;3.03;2.53;;;19.50;93.60;;;;;;4945691;29;20031;-72
2022/07/03 07:08:46;;;;;;;4.27;2.77;;;19.50;93.90;;;;;;4961215;29;20071;-73
2022/07/03 07:11:12;;;;;;;3.55;2.20;;;19.60;94.10;;;;;;4963368;29;20031;-72
2022/07/03 07:13:37;;;;;;;5.73;3.00;;;19.60;93.90;;;;;;4964520;28;20051;-73
2022/07/03 07:16:03;;;;;;;4.03;2.80;;;19.70;93.20;;;;;;4964748;28;20302;-73
2022/07/03 07:18:29;;;;;;;4.57;2.92;;;19.80;93.10;;;;;;4964703;28;20027;-73
2022/07/03 07:20:55;;;;;;;5.10;2.93;;;19.80;93.10;;;;;;4950651;28;20254;-70
2022/07/03 07:23:21;;;;;;;3.73;2.60;;;19.90;93.30;;;;;;4945349;29;20318;-71
2022/07/03 07:25:46;;;;;;;3.40;2.87;;;19.90;93.50;;;;;;4945511;29;20050;-70
2022/07/03 07:28:12;;;;;;;3.57;2.70;;;20.00;93.80;;;;;;4945441;29;20226;-71
2022/07/03 07:30:41;;;;;;;3.60;2.70;;;20.00;93.00;;;;;;4956513;29;20035;-71
2022/07/03 07:33:07;;;;;;;2.60;2.40;;;20.00;93.10;;;;;;4963960;28;20118;-71
2022/07/03 07:35:33;;;;;;;5.40;2.38;;;20.10;92.30;;;;;;4963419;29;20253;-71
2022/07/03 07:37:59;;;;;;;2.57;2.37;;;20.10;92.40;;;;;;4964413;28;20086;-70
2022/07/03 07:40:24;;;;;;;2.77;2.30;;;20.20;92.60;;;;;;4962414;29;20348;-70
2022/07/03 07:42:50;;;;;;;3.47;3.00;;;20.20;93.00;;;;;;4964211;28;20047;-71
2022/07/03 07:45:16;;;;;;;4.37;2.40;;;20.30;92.40;;;;;;4964066;28;20095;-71
2022/07/03 07:47:42;;;;;;;4.27;2.90;;;20.30;92.30;;;;;;4963284;29;20027;-71
2022/07/03 07:50:08;;;;;;;3.03;2.37;;;20.40;92.20;;;;;;4951379;28;20033;-71
2022/07/03 07:52:34;;;;;;;3.22;2.17;;;20.40;91.90;;;;;;4945237;29;20023;-69
2022/07/03 07:54:59;;;;;;;3.17;2.03;;;20.50;92.30;;;;;;4944635;29;20079;-73
2022/07/03 07:57:25;;;;;;;3.07;2.53;;;20.60;92.20;;;;;;4962797;29;20031;-71
2022/07/03 07:59:51;;;;;;;3.70;2.13;;;20.70;92.00;;;;;;4964216;28;20434;-71
2022/07/03 08:07:45;;;;;;;4.85;2.28;;;20.80;92.00;;;;;;4949214;29;20357;-73
2022/07/03 08:10:11;;;;;;;3.40;2.00;;;21.00;90.90;;;;;;4952374;29;20330;-71
2022/07/03 08:12:36;;;;;;;2.33;2.13;;;21.00;90.70;;;;;;4950310;29;20038;-71
2022/07/03 08:15:02;;;;;;;3.50;2.13;;;21.10;91.30;;;;;;4949511;29;20031;-71
2022/07/03 08:17:28;;;;;;;2.42;2.22;;;21.20;90.30;;;;;;4949282;29;20034;-71
2022/07/03 08:19:54;;;;;;;3.93;2.73;;;21.30;90.40;;;;;;4948767;29;20369;-71
2022/07/03 08:22:20;;;;;;;5.07;2.10;;;21.40;91.10;;;;;;4948086;29;20188;-71
2022/07/03 08:24:45;;;;;;;3.50;2.00;;;21.40;90.80;;;;;;4948172;29;20023;-71
2022/07/03 08:27:11;;;;;;;2.57;1.80;;;21.50;89.70;;;;;;4948464;29;20091;-71
2022/07/03 08:29:37;;;;;;;3.77;2.10;;;21.50;89.90;;;;;;4948539;29;20275;-71
2022/07/03 08:32:04;;;;;;;4.13;2.07;;;21.60;90.30;;;;;;4948390;29;20459;-71
2022/07/03 08:34:30;;;;;;;2.22;2.03;;;21.60;90.00;;;;;;4946781;29;20095;-71
2022/07/03 08:36:55;;;;;;;2.67;2.30;;;21.70;90.30;;;;;;4948670;29;20342;-71
2022/07/03 08:39:21;;;;;;;3.77;2.10;;;21.70;88.80;;;;;;4947959;29;20023;-71
2022/07/03 08:41:47;;;;;;;2.57;1.90;;;21.80;87.80;;;;;;4948232;29;20243;-71
2022/07/03 08:44:13;;;;;;;3.57;1.97;;;21.90;89.00;;;;;;4946872;29;20326;-71
2022/07/03 08:46:39;;;;;;;2.63;2.00;;;22.00;87.90;;;;;;4947266;29;20102;-71
2022/07/03 08:49:06;;;;;;;2.58;1.95;;;22.10;86.90;;;;;;4947200;29;20027;-71
2022/07/03 08:51:32;;;;;;;5.18;2.72;;;22.20;86.80;;;;;;4946980;29;20035;-71
2022/07/03 08:54:00;;;;;;;2.73;1.97;;;22.20;88.00;;;;;;4946877;29;20323;-71
2022/07/03 08:56:25;;;;;;;2.55;2.20;;;22.20;89.20;;;;;;4963409;29;20306;-71
2022/07/03 08:58:51;;;;;;;2.57;1.90;;;22.20;85.60;;;;;;4965817;28;20038;-71
2022/07/03 09:01:18;;;;;;;1.90;1.63;;;22.30;86.00;;;;;;4959340;28;20024;-74
2022/07/03 09:03:44;;;;;;;1.90;1.70;;;22.40;87.10;;;;;;4946436;29;20095;-71
2022/07/03 09:06:12;;;;;;;1.95;1.70;;;22.40;86.20;;;;;;4946510;29;20095;-71
2022/07/03 09:08:38;;;;;;;2.08;1.85;;;22.50;84.50;;;;;;4965860;29;20038;-70
2022/07/03 09:11:04;;;;;;;2.33;1.70;;;22.60;84.10;;;;;;4965520;29;20082;-71
2022/07/03 09:13:30;;;;;;;2.50;1.60;;;22.60;84.80;;;;;;4964484;29;20031;-71
2022/07/03 09:15:55;;;;;;;1.92;1.73;;;22.60;84.90;;;;;;4966466;28;20143;-71
2022/07/03 09:18:42;;;;;;;2.33;1.42;;;22.60;83.70;;;;;;4966704;28;20246;-71
2022/07/03 09:21:10;;;;;;;1.80;1.70;;;22.70;85.20;;;;;;4951079;28;20034;-71
2022/07/03 09:23:43;;;;;;;3.33;1.42;;;22.70;84.20;;;;;;4947032;29;20337;-72
2022/07/03 09:26:17;;;;;;;1.85;1.65;;;22.70;84.50;;;;;;4946385;29;20055;-71
2022/07/03 09:28:51;;;;;;;1.63;1.45;;;22.80;80.10;;;;;;4946300;29;20039;-72
2022/07/03 09:31:19;;;;;;;2.30;1.65;;;22.90;80.80;;;;;;4948735;29;20091;-72
2022/07/03 09:34:07;;;;;;;1.65;1.52;;;22.90;81.20;;;;;;4964664;29;20031;-72
2022/07/03 09:36:39;;;;;;;;;;;23.00;80.40;;;;;;4966814;28;20057;-73
2022/07/03 09:39:31;;;;;;;4.63;1.48;;;23.10;78.90;;;;;;4961576;28;19946;-73
2022/07/03 09:42:09;;;;;;;4.82;2.17;;;23.10;78.80;;;;;;4947248;29;20030;-73
2022/07/03 09:44:37;;;;;;;1.50;1.40;;;23.20;79.20;;;;;;4946768;29;20027;-73
2022/07/03 09:47:23;;;;;;;3.05;1.50;;;23.30;78.00;;;;;;4961131;29;20027;-73
2022/07/03 09:49:59;;;;;;;2.17;1.40;;;23.30;77.50;;;;;;4964889;29;20031;-73
2022/07/03 09:52:32;;;;;;;2.00;1.40;;;23.50;77.80;;;;;;4966196;28;20027;-73
2022/07/03 09:55:10;;;;;;;1.50;1.40;;;23.50;77.60;;;;;;4948393;28;20035;-73
2022/07/03 09:57:37;;;;;;;1.38;1.10;;;23.60;76.90;;;;;;4966040;28;20023;-73
2022/07/03 10:00:25;;;;;;;1.23;1.13;;;23.60;75.90;;;;;;4966008;28;20242;-73
2022/07/03 10:02:57;;;;;;;1.27;1.17;;;23.70;75.20;;;;;;4964710;28;20027;-73
2022/07/03 10:05:26;;;;;;;2.83;1.17;;;23.80;75.50;;;;;;4946470;29;20023;-73
2022/07/03 10:07:57;;;;;;;3.63;1.98;;;23.90;77.00;;;;;;4946720;29;20030;-73
2022/07/03 10:10:25;;;;;;;1.60;1.50;;;24.00;76.00;;;;;;4956510;29;20043;-73
2022/07/03 10:12:52;;;;;;;2.72;1.30;;;24.00;74.10;;;;;;4946733;29;20055;-73
2022/07/03 10:15:19;;;;;;;1.60;1.27;;;24.10;73.50;;;;;;4945784;29;20329;-73
2022/07/03 10:17:47;;;;;;;;;;;24.10;75.90;;;;;;4945769;29;20023;-73
2022/07/03 10:20:14;;;;;;;1.30;1.20;;;24.10;76.20;;;;;;4954751;29;19906;-73
2022/07/03 10:22:46;;;;;;;2.28;1.13;;;24.10;74.90;;;;;;4965141;28;20042;-73
2022/07/03 10:25:13;;;;;;;2.28;1.00;;;24.20;75.10;;;;;;4963810;29;20047;-73
2022/07/03 10:27:38;;;;;;;1.55;1.17;;;24.20;64.90;;;;;;4964010;28;20030;-73
2022/07/03 10:30:05;;;;;;;2.47;1.20;;;24.30;67.10;;;;;;4963551;28;20027;-73
2022/07/03 10:32:32;;;;;;;1.17;1.08;;;24.30;66.20;;;;;;4964937;28;20309;-73
2022/07/03 10:34:58;;;;;;;0.93;0.63;;;24.30;64.60;;;;;;4960629;29;20039;-73
2022/07/03 10:37:25;;;;;;;0.88;0.80;;;24.30;63.30;;;;;;4945666;29;20226;-73
2022/07/03 10:46:22;;;;;;;1.10;1.00;;;24.60;60.10;;;;;;4950085;29;20094;-73
2022/07/03 10:49:00;;;;;;;1.30;1.00;;;24.80;66.60;;;;;;4965177;28;20034;-73
2022/07/03 10:51:28;;;;;;;2.75;0.77;;;24.90;61.30;;;;;;4963155;28;20027;-73
2022/07/03 10:54:33;;;;;;;1.90;1.10;;;25.00;58.90;;;;;;4943656;29;20043;-73
2022/07/03 10:57:02;;;;;;;2.35;0.88;;;25.00;57.50;;;;;;4950430;29;20031;-72
2022/07/03 10:59:36;;;;;;;2.15;0.90;;;25.10;58.40;;;;;;4964820;28;20047;-72
2022/07/03 11:02:27;;;;;;;1.23;0.82;;;25.10;59.70;;;;;;4959077;28;20366;-72
2022/07/03 11:07:32;;;;;;;2.47;0.70;;;25.10;57.50;;;;;;4945690;29;20104;-72
2022/07/03 11:10:12;;;;;;;1.67;0.90;;;25.30;58.40;;;;;;4945844;29;20055;-73
2022/07/03 11:12:56;;;;;;;1.73;0.80;;;25.50;59.00;;;;;;4945416;29;20275;-73
2022/07/03 11:15:31;;;;;;;0.88;0.80;;;25.60;56.70;;;;;;4945418;29;20020;-72
2022/07/03 11:18:19;;;;;;;2.83;0.80;;;25.70;58.40;;;;;;4945603;29;20054;-73
2022/07/03 11:20:45;;;;;;;1.13;0.82;;;25.80;56.60;;;;;;4944303;29;20024;-73
2022/07/03 11:23:26;;;;;;;0.63;0.63;;;26.00;56.10;;;;;;4959896;29;20030;-73
2022/07/03 11:26:02;;;;;;;1.42;0.80;;;26.00;56.30;;;;;;4964691;28;20269;-72
2022/07/03 11:28:33;;;;;;;2.10;0.80;;;26.20;56.30;;;;;;4962702;28;20030;-73
2022/07/03 11:31:13;;;;;;;0.95;0.80;;;26.30;57.60;;;;;;4964484;28;20030;-73
2022/07/03 11:33:42;;;;;;;1.20;0.80;;;26.40;57.50;;;;;;4962330;29;20070;-72
2022/07/03 11:36:11;;;;;;;0.70;0.70;;;26.50;55.40;;;;;;4964410;28;20385;-73
2022/07/03 11:38:37;;;;;;;1.02;0.80;;;26.50;53.90;;;;;;4953465;28;20026;-73
2022/07/03 11:41:06;;;;;;;1.08;0.98;;;26.50;56.20;;;;;;4943108;29;20028;-73
2022/07/03 11:43:34;;;;;;;1.58;0.77;;;26.60;55.20;;;;;;4949257;29;20223;-72
2022/07/03 11:45:59;;;;;;;0.73;0.73;;;26.70;55.60;;;;;;4945089;29;20035;-73
2022/07/03 11:48:26;;;;;;;1.13;0.65;;;26.80;57.30;;;;;;4943890;29;20024;-73
2022/07/03 11:50:52;;;;;;;0.60;0.60;;;26.80;56.70;;;;;;4943713;29;20036;-73
2022/07/03 11:53:34;;;;;;;0.70;0.70;;;26.90;54.50;;;;;;4950588;29;20046;-73
2022/07/03 11:56:08;;;;;;;2.15;0.80;;;27.10;54.00;;;;;;4963353;29;20276;-73
2022/07/03 11:58:51;;;;;;;2.08;0.90;;;27.10;56.20;;;;;;4959669;29;20033;-73
2022/07/03 12:01:26;;;;;;;1.10;0.93;;;27.20;55.00;;;;;;4943987;29;20020;-73
2022/07/03 12:04:08;;;;;;;0.82;0.80;;;27.40;56.50;;;;;;4948059;29;20025;-73
2022/07/03 12:06:52;;;;;;;1.23;0.80;;;27.50;52.30;;;;;;4964251;28;20078;-73
2022/07/03 12:09:35;;;;;;;1.60;0.70;;;27.70;52.40;;;;;;4960060;29;20258;-73
2022/07/03 12:12:02;;;;;;;2.00;0.85;;;27.80;53.20;;;;;;4944135;29;20246;-73
2022/07/03 12:14:44;;;;;;;2.55;1.13;;;28.00;52.70;;;;;;4944175;29;20031;-73
2022/07/03 12:17:12;;;;;;;1.02;0.90;;;28.00;53.40;;;;;;4961565;29;20031;-73
2022/07/03 12:19:38;;;;;;;0.65;0.65;;;28.20;55.60;;;;;;4963788;28;20233;-73
2022/07/03 12:22:04;;;;;;;0.80;0.80;;;28.30;53.80;;;;;;4948129;28;20067;-73
2022/07/03 12:24:30;;;;;;;5.07;0.70;;;28.40;52.20;;;;;;4944208;29;20024;-73
2022/07/03 12:26:56;;;;;;;1.25;0.82;;;28.60;50.40;;;;;;4943791;29;20128;-73
2022/07/03 12:29:22;;;;;;;1.48;0.70;;;28.70;48.70;;;;;;4955886;29;20029;-73
2022/07/03 12:31:48;;;;;;;0.68;0.68;;;28.90;52.20;;;;;;4963137;29;20090;-73
2022/07/03 12:34:16;;;;;;;1.00;0.80;;;29.00;55.00;;;;;;4977826;23;20101;-71
2022/07/03 12:36:55;;;;;;;2.50;1.15;;;29.20;51.80;;;;;;4965607;28;20031;-71
2022/07/03 12:39:21;;;;;;;1.30;0.73;;;29.30;50.40;;;;;;4982613;28;20092;-71
2022/07/03 12:41:46;;;;;;;1.48;0.93;;;29.50;50.80;;;;;;4982735;28;20322;-71
2022/07/03 12:44:17;;;;;;;1.60;0.73;;;29.60;50.60;;;;;;4981919;28;20034;-72
2022/07/03 12:46:43;;;;;;;1.08;0.93;;;29.90;52.40;;;;;;4982121;28;20026;-71
2022/07/03 12:49:10;;;;;;;2.40;0.82;;;30.00;48.60;;;;;;4981985;28;20030;-71
2022/07/03 12:51:48;;;;;;;2.17;0.70;;;30.10;47.70;;;;;;4984055;28;20039;-72
2022/07/03 12:54:32;;;;;;;1.05;0.70;;;30.30;48.00;;;;;;4984431;28;20066;-72
2022/07/03 13:00:19;;;;;;;0.77;0.50;;;30.60;49.40;;;;;;4986316;28;20106;-72
2022/07/03 13:02:47;;;;;;;0.93;0.70;;;30.80;46.70;;;;;;4986219;28;20074;-71
2022/07/03 13:05:23;;;;;;;2.15;0.80;;;30.80;47.30;;;;;;4984306;28;20045;-72
2022/07/03 13:07:53;;;;;;;2.10;1.10;;;31.10;44.80;;;;;;4986281;28;20106;-72
2022/07/03 13:10:21;;;;;;;1.00;0.90;;;31.20;44.10;;;;;;4986169;28;20030;-72
2022/07/03 13:12:57;;;;;;;1.08;0.70;;;31.40;46.10;;;;;;4984939;28;20342;-72
2022/07/03 13:15:29;;;;;;;0.85;0.70;;;31.50;44.20;;;;;;4985001;28;20019;-72
2022/07/03 13:17:56;;;;;;;0.60;0.60;;;31.60;44.60;;;;;;4986221;28;20035;-72
2022/07/03 13:20:29;;;;;;;0.60;0.60;;;31.80;45.70;;;;;;4984907;28;20041;-72
2022/07/03 13:22:57;;;;;;;0.85;0.85;;;32.10;43.90;;;;;;4984600;28;20030;-72
2022/07/03 13:25:22;;;;;;;1.63;0.60;;;32.30;45.20;;;;;;4986132;28;20023;-72